Time;durP1;ratioP1;P1;durP2;ratioP2;P2;SDS_P1;SDS_P2;PMS_P1;PMS_P2;Temp;Humidity;BMP_temperature;BMP_pressure;BME280_temperature;BME280_humidity;BME280_pressure;Samples;Min_cycle;Max_cycle;Signal;HPM_P1;HPM_P2
2022/10/24 00:00:14;;;;;;;7.28;5.70;;;;;;;15.96;86.39;100219.59;5105912;28;20406;-65
2022/10/24 00:02:42;;;;;;;8.50;4.72;;;;;;;15.95;86.42;100213.13;5105066;28;20066;-66
2022/10/24 00:05:12;;;;;;;17.50;16.17;;;;;;;15.66;86.67;100210.88;5103256;28;20061;-64
2022/10/24 00:07:39;;;;;;;19.40;18.00;;;;;;;15.33;87.76;100196.22;5107181;28;20048;-64
2022/10/24 00:10:08;;;;;;;19.50;17.80;;;;;;;15.09;88.72;100193.75;5098320;28;20356;-65
2022/10/24 00:12:34;;;;;;;19.08;17.48;;;;;;;15.01;89.23;100192.53;5109387;28;20059;-64
2022/10/24 00:15:02;;;;;;;18.48;17.10;;;;;;;14.99;89.80;100194.81;5101004;28;20150;-67
2022/10/24 00:17:29;;;;;;;18.63;16.95;;;;;;;14.92;90.10;100186.00;5101171;28;20498;-67
2022/10/24 00:19:57;;;;;;;18.80;16.90;;;;;;;14.99;90.13;100202.44;5100698;28;20055;-62
2022/10/24 00:22:24;;;;;;;17.73;15.20;;;;;;;14.98;90.12;100195.16;5103062;28;20044;-65
2022/10/24 00:24:51;;;;;;;14.27;13.20;;;;;;;15.05;90.53;100202.00;5109575;28;20059;-65
2022/10/24 00:27:18;;;;;;;20.10;13.18;;;;;;;15.08;90.15;100194.91;5104563;27;20040;-65
2022/10/24 00:29:45;;;;;;;13.00;10.85;;;;;;;15.00;90.39;100185.22;5106407;28;20063;-66
2022/10/24 00:32:13;;;;;;;14.48;10.07;;;;;;;15.19;90.26;100206.72;5102795;28;20066;-66
2022/10/24 00:34:40;;;;;;;12.73;10.63;;;;;;;15.20;90.29;100197.13;5104553;28;20048;-64
2022/10/24 00:37:07;;;;;;;12.05;8.73;;;;;;;15.14;90.61;100188.84;5105523;28;20059;-64
2022/10/24 00:39:34;;;;;;;16.13;9.80;;;;;;;15.36;90.59;100218.91;5105630;28;20051;-64
2022/10/24 00:42:01;;;;;;;11.43;8.18;;;;;;;15.40;90.20;100219.09;5106218;28;20062;-65
2022/10/24 00:44:31;;;;;;;17.95;9.38;;;;;;;15.38;90.47;100211.00;5102591;28;20059;-64
2022/10/24 00:47:03;;;;;;;12.52;7.65;;;;;;;15.35;90.71;100206.00;5104895;28;20528;-64
2022/10/24 00:49:59;;;;;;;17.55;8.23;;;;;;;15.33;90.50;100207.47;5105026;28;20517;-64
2022/10/24 00:52:34;;;;;;;14.70;9.23;;;;;;;15.35;90.43;100217.28;5103010;28;20058;-63
2022/10/24 00:55:03;;;;;;;12.02;8.20;;;;;;;15.36;90.70;100213.28;5101961;28;20052;-64
2022/10/24 00:57:38;;;;;;;12.37;8.67;;;;;;;15.43;90.71;100212.00;5107219;28;20043;-63
2022/10/24 01:00:13;;;;;;;8.10;7.40;;;;;;;15.46;90.74;100217.00;5106806;28;20304;-65
2022/10/24 01:02:41;;;;;;;10.35;9.38;;;;;;;15.37;91.15;100214.94;5104429;28;20058;-64
2022/10/24 01:05:09;;;;;;;12.75;9.93;;;;;;;15.28;91.10;100222.50;5105085;28;20135;-63
2022/10/24 01:07:50;;;;;;;20.63;12.43;;;;;;;15.19;91.30;100215.97;5108194;28;20450;-65
2022/10/24 01:10:56;;;;;;;15.40;13.07;;;;;;;15.10;91.77;100209.47;5102754;28;20051;-63
2022/10/24 01:13:59;;;;;;;16.48;12.90;;;;;;;15.05;92.24;100235.72;5103788;28;20494;-65
2022/10/24 01:16:37;;;;;;;17.83;14.65;;;;;;;15.12;92.57;100207.16;5105586;28;20040;-64
2022/10/24 01:19:25;;;;;;;16.88;15.32;;;;;;;15.13;92.54;100215.28;5100469;28;20113;-63
2022/10/24 01:21:58;;;;;;;16.85;15.20;;;;;;;15.06;92.68;100209.25;5106896;28;20409;-65
2022/10/24 01:24:46;;;;;;;16.45;14.77;;;;;;;15.11;93.02;100211.09;5108213;28;20048;-65
2022/10/24 01:27:18;;;;;;;18.75;14.60;;;;;;;15.11;93.06;100223.22;5102776;28;20122;-65
2022/10/24 01:30:05;;;;;;;14.35;13.30;;;;;;;15.01;92.86;100206.59;5106998;28;20051;-66
2022/10/24 01:32:59;;;;;;;15.25;13.65;;;;;;;15.00;93.27;100206.91;5102205;28;20051;-65
2022/10/24 01:35:41;;;;;;;14.52;13.13;;;;;;;15.03;93.10;100211.88;5105821;28;20410;-64
2022/10/24 01:38:29;;;;;;;20.48;15.35;;;;;;;14.99;93.17;100214.50;5109343;28;20048;-63
2022/10/24 01:41:02;;;;;;;18.80;15.35;;;;;;;15.03;93.09;100206.25;5098775;28;20418;-64
2022/10/24 01:43:43;;;;;;;14.77;13.60;;;;;;;14.99;93.07;100200.44;5104673;28;20048;-64
2022/10/24 01:46:14;;;;;;;17.15;13.05;;;;;;;15.04;93.47;100197.53;5099399;28;20059;-63
2022/10/24 01:48:50;;;;;;;14.30;13.15;;;;;;;15.02;93.36;100191.38;5100782;28;20047;-64
2022/10/24 01:51:21;;;;;;;15.07;13.05;;;;;;;15.05;93.26;100206.78;5102886;28;20059;-64
2022/10/24 01:53:50;;;;;;;17.38;15.68;;;;;;;15.02;93.42;100193.34;5108224;28;20055;-63
2022/10/24 01:56:16;;;;;;;16.25;14.73;;;;;;;15.04;93.15;100211.59;5100209;28;20047;-63
2022/10/24 01:58:44;;;;;;;16.33;15.00;;;;;;;15.06;93.42;100214.06;5098839;28;20054;-64
2022/10/24 02:01:17;;;;;;;19.63;16.08;;;;;;;14.85;93.42;100168.75;5104083;28;20044;-64
2022/10/24 02:03:51;;;;;;;15.60;14.30;;;;;;;15.03;93.33;100189.38;5105025;28;20134;-63
2022/10/24 02:06:22;;;;;;;16.52;14.38;;;;;;;15.02;93.51;100202.63;5109656;28;20494;-64
2022/10/24 02:08:57;;;;;;;14.45;12.93;;;;;;;14.99;93.38;100192.00;5108203;28;20478;-64
2022/10/24 02:11:24;;;;;;;12.20;11.13;;;;;;;15.08;93.56;100223.03;5099406;28;20046;-65
2022/10/24 02:14:01;;;;;;;15.77;10.77;;;;;;;15.13;93.20;100203.19;5100562;28;20390;-65
2022/10/24 02:16:28;;;;;;;14.35;11.15;;;;;;;15.20;93.34;100188.69;5106753;28;20379;-64
2022/10/24 02:18:56;;;;;;;11.68;9.43;;;;;;;15.26;93.37;100202.31;5102260;28;20043;-62
2022/10/24 02:21:52;;;;;;;12.32;11.02;;;;;;;15.18;92.76;100189.03;5106837;28;20059;-64
2022/10/24 02:24:23;;;;;;;17.67;10.73;;;;;;;15.25;92.91;100189.41;5099356;28;20051;-64
2022/10/24 02:26:57;;;;;;;17.70;10.50;;;;;;;15.10;92.82;100161.66;5105468;28;20059;-63
2022/10/24 02:29:30;;;;;;;10.38;9.38;;;;;;;15.21;93.16;100182.72;5102381;28;20043;-64
2022/10/24 02:31:58;;;;;;;13.07;9.20;;;;;;;15.29;92.90;100189.59;5106668;28;20055;-64
2022/10/24 02:34:29;;;;;;;11.18;8.48;;;;;;;15.24;92.80;100170.84;5110982;27;20043;-64
2022/10/24 02:36:58;;;;;;;14.07;9.05;;;;;;;15.26;92.45;100181.78;5109670;28;20043;-63
2022/10/24 02:39:26;;;;;;;11.00;7.32;;;;;;;15.23;92.71;100173.97;5108831;27;20051;-64
2022/10/24 02:41:56;;;;;;;8.60;7.35;;;;;;;15.24;92.20;100173.66;5107446;28;20066;-63
2022/10/24 02:44:23;;;;;;;;;;;;;;;15.04;92.95;100180.66;5108103;28;20044;-63
2022/10/24 02:46:53;;;;;;;8.90;7.75;;;;;;;15.26;92.79;100179.78;5106782;28;19928;-63
2022/10/24 02:49:20;;;;;;;12.73;7.05;;;;;;;15.29;92.61;100192.41;5104557;28;20044;-62
2022/10/24 02:51:47;;;;;;;17.55;7.45;;;;;;;15.32;92.60;100188.94;5104931;28;20044;-64
2022/10/24 02:54:14;;;;;;;10.32;6.72;;;;;;;15.33;92.63;100197.06;5113235;28;20051;-63
2022/10/24 02:57:02;;;;;;;14.05;6.32;;;;;;;15.30;92.00;100192.06;5111442;28;20136;-64
2022/10/24 02:59:29;;;;;;;11.45;6.65;;;;;;;15.34;92.52;100176.19;5108161;28;20056;-64
2022/10/24 03:01:56;;;;;;;6.80;6.28;;;;;;;15.36;92.46;100185.16;5103621;28;20051;-64
2022/10/24 03:04:23;;;;;;;9.30;7.13;;;;;;;15.21;92.05;100160.22;5107176;28;20498;-65
2022/10/24 03:06:52;;;;;;;6.75;6.25;;;;;;;15.33;92.14;100185.78;5108430;28;20516;-66
2022/10/24 03:09:19;;;;;;;8.27;5.90;;;;;;;15.32;92.54;100177.69;5103382;28;20055;-66
2022/10/24 03:11:45;;;;;;;8.52;7.63;;;;;;;15.37;92.21;100181.19;5113881;27;20410;-65
2022/10/24 03:14:12;;;;;;;11.55;7.45;;;;;;;15.39;92.30;100192.97;5107321;28;20134;-64
2022/10/24 03:16:39;;;;;;;8.60;5.68;;;;;;;15.45;92.37;100204.06;5107310;28;20039;-65
2022/10/24 03:19:06;;;;;;;9.40;5.85;;;;;;;15.47;91.93;100196.13;5101847;28;20043;-64
2022/10/24 03:21:33;;;;;;;15.45;6.55;;;;;;;15.52;92.28;100193.19;5106202;28;20047;-65
2022/10/24 03:24:00;;;;;;;8.23;5.70;;;;;;;15.51;91.69;100194.34;5103532;28;20055;-66
2022/10/24 03:26:26;;;;;;;6.85;5.68;;;;;;;15.46;91.52;100189.69;5103355;28;20166;-65
2022/10/24 03:28:53;;;;;;;12.35;7.47;;;;;;;15.49;91.64;100182.59;5108666;28;20054;-64
2022/10/24 03:31:20;;;;;;;7.97;5.03;;;;;;;15.53;91.86;100192.88;5103035;28;20432;-64
2022/10/24 03:33:47;;;;;;;8.20;5.45;;;;;;;15.46;91.65;100171.97;5108369;28;20062;-65
2022/10/24 03:36:13;;;;;;;7.05;5.35;;;;;;;15.54;91.75;100197.34;5106383;28;20055;-65
2022/10/24 03:38:40;;;;;;;11.30;6.97;;;;;;;15.53;91.87;100203.31;5103971;28;20055;-65
2022/10/24 03:41:07;;;;;;;12.80;6.15;;;;;;;15.43;91.77;100201.59;5108046;28;20044;-64
2022/10/24 03:43:34;;;;;;;9.77;6.45;;;;;;;15.43;91.77;100207.22;5104174;28;20059;-65
2022/10/24 03:46:01;;;;;;;8.75;7.55;;;;;;;15.38;92.10;100205.38;5106426;28;20124;-65
2022/10/24 03:48:28;;;;;;;7.93;6.60;;;;;;;15.36;92.01;100202.03;5106340;28;20043;-65
2022/10/24 03:50:54;;;;;;;13.52;8.23;;;;;;;15.36;92.07;100196.41;5109263;28;20059;-64
2022/10/24 03:53:21;;;;;;;7.53;6.88;;;;;;;15.33;92.00;100194.22;5109228;28;20047;-65
2022/10/24 03:55:48;;;;;;;7.88;7.28;;;;;;;15.25;91.81;100174.50;5103983;27;20090;-64
2022/10/24 03:58:16;;;;;;;9.38;8.57;;;;;;;15.25;91.83;100182.94;5106687;28;20070;-63
2022/10/24 04:00:43;;;;;;;11.52;6.90;;;;;;;15.16;91.63;100175.25;5106005;27;20048;-63
2022/10/24 04:03:09;;;;;;;7.43;6.25;;;;;;;15.22;91.72;100184.41;5105860;28;20043;-64
2022/10/24 04:05:36;;;;;;;10.93;7.40;;;;;;;15.24;91.65;100173.66;5098232;28;20051;-64
2022/10/24 04:08:08;;;;;;;16.33;6.90;;;;;;;15.29;91.64;100181.97;5100870;28;20047;-63
2022/10/24 04:10:35;;;;;;;11.95;7.95;;;;;;;15.30;91.66;100186.44;5107579;28;20498;-64
2022/10/24 04:13:02;;;;;;;14.05;6.15;;;;;;;15.35;91.71;100186.31;5111188;28;20499;-63
2022/10/24 04:15:30;;;;;;;16.92;7.43;;;;;;;15.35;91.71;100186.31;5100655;28;20056;-63
2022/10/24 04:17:56;;;;;;;10.90;6.72;;;;;;;15.44;92.11;100197.59;5105061;28;20058;-64
2022/10/24 04:20:23;;;;;;;8.05;7.22;;;;;;;15.50;91.55;100196.31;5099713;28;20533;-63
2022/10/24 04:22:50;;;;;;;8.32;7.50;;;;;;;15.45;91.33;100181.56;5107976;28;20040;-64
2022/10/24 04:25:17;;;;;;;6.47;5.88;;;;;;;15.60;91.47;100190.41;5110960;28;20055;-63
2022/10/24 04:27:45;;;;;;;10.63;5.70;;;;;;;15.46;91.12;100177.59;5108042;28;20048;-64
2022/10/24 04:30:13;;;;;;;8.25;7.45;;;;;;;15.56;91.33;100199.84;5107022;28;20065;-63
2022/10/24 04:32:42;;;;;;;13.43;6.70;;;;;;;15.52;91.10;100182.78;5099945;28;20043;-64
2022/10/24 04:35:10;;;;;;;5.95;5.30;;;;;;;15.56;90.72;100186.59;5102938;28;20055;-64
2022/10/24 04:37:37;;;;;;;7.72;5.88;;;;;;;15.56;90.85;100189.41;5104576;28;20051;-64
2022/10/24 04:40:04;;;;;;;11.40;5.80;;;;;;;15.61;90.62;100185.63;5101140;28;20040;-63
2022/10/24 04:42:31;;;;;;;10.07;5.60;;;;;;;15.63;90.30;100191.78;5103313;28;20532;-64
2022/10/24 04:44:58;;;;;;;9.55;6.28;;;;;;;15.63;90.08;100186.13;5104625;27;20051;-64
2022/10/24 04:47:26;;;;;;;9.27;6.00;;;;;;;15.55;89.94;100170.84;5106786;28;20425;-64
2022/10/24 04:49:52;;;;;;;11.75;6.22;;;;;;;15.62;89.90;100193.75;5103239;28;20058;-64
2022/10/24 04:52:19;;;;;;;6.55;5.10;;;;;;;15.67;90.03;100184.38;5110164;28;20048;-64
2022/10/24 04:54:46;;;;;;;16.77;5.43;;;;;;;15.68;89.93;100208.53;5122963;27;20051;-63
2022/10/24 04:57:13;;;;;;;10.50;5.90;;;;;;;15.66;90.00;100202.41;5100860;28;20048;-63
2022/10/24 04:59:40;;;;;;;16.23;5.88;;;;;;;15.64;89.98;100208.31;5105806;28;20048;-64
2022/10/24 05:02:06;;;;;;;11.00;5.60;;;;;;;15.67;89.84;100217.31;5101172;28;20052;-63
2022/10/24 05:04:33;;;;;;;12.07;7.22;;;;;;;15.68;89.90;100207.72;5099775;28;20059;-63
2022/10/24 05:07:00;;;;;;;9.98;5.60;;;;;;;15.74;89.36;100226.94;5109516;28;20054;-64
2022/10/24 05:09:27;;;;;;;18.45;5.53;;;;;;;15.75;89.59;100217.34;5102913;28;20490;-63
2022/10/24 05:11:55;;;;;;;10.88;6.68;;;;;;;15.81;89.76;100229.31;5095412;28;20094;-64
2022/10/24 05:14:22;;;;;;;8.23;7.05;;;;;;;15.81;89.63;100235.75;5098982;28;20050;-63
2022/10/24 05:16:49;;;;;;;8.40;6.28;;;;;;;15.86;89.33;100229.16;5105767;28;20047;-63
2022/10/24 05:19:18;;;;;;;8.07;5.75;;;;;;;15.78;89.19;100213.88;5098782;28;20057;-63
2022/10/24 05:21:45;;;;;;;6.13;5.55;;;;;;;15.85;89.21;100222.69;5105158;28;20078;-63
2022/10/24 05:24:12;;;;;;;5.50;5.00;;;;;;;15.86;89.68;100221.56;5102864;28;20048;-64
2022/10/24 05:26:39;;;;;;;16.52;6.20;;;;;;;15.83;89.37;100210.94;5099726;28;20124;-64
2022/10/24 05:29:06;;;;;;;5.97;5.55;;;;;;;15.75;89.39;100192.00;5108414;28;20039;-63
2022/10/24 05:31:37;;;;;;;11.18;6.47;;;;;;;15.87;89.47;100217.59;5099091;28;20097;-64
2022/10/24 05:34:04;;;;;;;6.40;5.35;;;;;;;15.81;89.34;100209.59;5099945;28;20051;-63
2022/10/24 05:36:31;;;;;;;11.98;6.43;;;;;;;15.76;89.32;100216.22;5105053;28;20517;-63
2022/10/24 05:38:58;;;;;;;8.95;6.05;;;;;;;15.74;89.40;100218.50;5105514;28;20509;-63
2022/10/24 05:41:25;;;;;;;9.13;6.88;;;;;;;15.69;89.60;100221.47;5104625;28;20055;-64
2022/10/24 05:43:51;;;;;;;11.50;7.00;;;;;;;15.71;89.35;100218.31;5105079;28;20047;-64
2022/10/24 05:46:18;;;;;;;13.18;6.63;;;;;;;15.72;89.77;100228.41;5102393;28;20043;-64
2022/10/24 05:48:45;;;;;;;11.55;6.45;;;;;;;15.77;89.53;100231.13;5101316;28;20394;-64
2022/10/24 05:51:12;;;;;;;11.55;5.95;;;;;;;15.75;89.71;100237.06;5098130;28;20056;-64
2022/10/24 05:53:39;;;;;;;11.32;7.25;;;;;;;15.70;89.62;100240.03;5095117;28;20055;-64
2022/10/24 05:56:06;;;;;;;8.38;7.00;;;;;;;15.73;89.52;100238.56;5107078;28;20062;-64
2022/10/24 05:58:33;;;;;;;10.57;7.28;;;;;;;15.74;89.45;100235.41;5100591;28;20050;-66
2022/10/24 06:00:59;;;;;;;16.88;7.40;;;;;;;15.72;89.56;100232.06;5101251;28;20583;-64
2022/10/24 06:03:27;;;;;;;16.73;7.47;;;;;;;15.68;89.54;100231.06;5098401;28;20139;-65
2022/10/24 06:05:53;;;;;;;11.60;7.05;;;;;;;15.69;89.28;100240.31;5104380;28;20059;-64
2022/10/24 06:08:20;;;;;;;12.90;7.50;;;;;;;15.76;89.78;100247.19;5100193;28;20048;-62
2022/10/24 06:10:49;;;;;;;15.85;7.93;;;;;;;15.81;89.31;100234.94;5103957;28;20062;-62
2022/10/24 06:13:17;;;;;;;6.75;6.07;;;;;;;15.78;89.38;100239.22;5106345;28;20047;-62
2022/10/24 06:15:43;;;;;;;7.07;6.15;;;;;;;15.84;89.29;100240.75;5107275;28;20513;-63
2022/10/24 06:18:11;;;;;;;7.70;6.30;;;;;;;15.76;89.61;100244.38;5111892;28;20510;-62
2022/10/24 06:20:38;;;;;;;14.50;8.27;;;;;;;15.86;89.48;100240.41;5113864;28;20055;-63
2022/10/24 06:23:04;;;;;;;9.38;7.70;;;;;;;15.87;89.45;100234.47;5104607;28;20498;-63
2022/10/24 06:25:31;;;;;;;11.18;8.55;;;;;;;15.87;89.41;100240.09;5105630;28;20051;-63
2022/10/24 06:27:59;;;;;;;9.43;7.45;;;;;;;15.91;89.17;100245.09;5103023;27;20082;-62
2022/10/24 06:30:26;;;;;;;11.18;6.10;;;;;;;15.88;88.76;100240.94;5102181;28;20055;-62
2022/10/24 06:32:53;;;;;;;9.35;7.28;;;;;;;15.94;88.80;100239.66;5105937;28;20434;-63
2022/10/24 06:35:19;;;;;;;11.52;6.03;;;;;;;15.85;88.96;100233.97;5104016;28;20050;-63
2022/10/24 06:37:46;;;;;;;10.52;5.30;;;;;;;15.98;88.54;100268.00;5103564;28;20047;-62
2022/10/24 06:40:15;;;;;;;10.65;7.93;;;;;;;16.06;88.30;100253.09;5109292;28;20044;-62
2022/10/24 06:42:42;;;;;;;15.10;7.72;;;;;;;16.02;88.52;100250.09;5109865;28;20055;-62
2022/10/24 06:45:10;;;;;;;6.80;4.88;;;;;;;16.05;88.36;100251.44;5098577;28;20056;-63
2022/10/24 06:47:36;;;;;;;14.57;6.25;;;;;;;16.12;88.53;100251.81;5094750;28;20422;-62
2022/10/24 06:50:04;;;;;;;5.70;4.45;;;;;;;16.13;88.14;100252.63;5093138;28;20047;-63
2022/10/24 06:52:31;;;;;;;6.70;5.82;;;;;;;16.15;88.23;100256.78;5097469;28;20488;-63
2022/10/24 06:54:58;;;;;;;13.68;8.63;;;;;;;16.18;88.11;100272.22;5098190;28;20059;-63
2022/10/24 06:57:25;;;;;;;5.70;5.20;;;;;;;16.19;88.11;100262.59;5104164;28;20505;-63
2022/10/24 06:59:52;;;;;;;6.80;5.18;;;;;;;16.15;87.77;100262.44;5109391;28;20044;-63
2022/10/24 07:02:19;;;;;;;7.90;7.22;;;;;;;16.19;88.37;100268.25;5101435;28;20398;-63
2022/10/24 07:04:46;;;;;;;5.90;4.95;;;;;;;16.12;88.18;100260.25;5112237;28;20501;-62
2022/10/24 07:07:15;;;;;;;4.97;4.45;;;;;;;16.18;88.08;100260.97;5103004;28;20043;-63
2022/10/24 07:09:42;;;;;;;13.40;7.35;;;;;;;16.21;87.71;100275.22;5111728;28;20057;-63
2022/10/24 07:12:10;;;;;;;7.88;7.13;;;;;;;16.18;87.85;100284.31;5107375;28;20058;-63
2022/10/24 07:14:37;;;;;;;9.93;7.07;;;;;;;16.15;88.04;100279.34;5102413;28;20059;-62
2022/10/24 07:17:04;;;;;;;8.40;5.47;;;;;;;16.20;88.12;100281.16;5097821;28;20048;-62
2022/10/24 07:19:31;;;;;;;10.60;7.38;;;;;;;16.25;87.96;100289.50;5101572;28;20052;-62
2022/10/24 07:22:03;;;;;;;8.07;7.05;;;;;;;16.19;88.06;100285.97;5103628;28;20055;-63
2022/10/24 07:24:30;;;;;;;12.25;7.32;;;;;;;16.19;87.79;100302.88;5107636;28;20059;-63
2022/10/24 07:26:56;;;;;;;10.63;5.45;;;;;;;16.21;87.66;100294.94;5107376;28;20056;-63
2022/10/24 07:29:23;;;;;;;8.05;6.15;;;;;;;16.22;87.85;100301.41;5095475;28;20333;-62
2022/10/24 07:31:50;;;;;;;8.48;5.22;;;;;;;16.19;87.55;100297.25;5094176;28;20048;-64
2022/10/24 07:34:17;;;;;;;7.35;5.05;;;;;;;16.25;87.71;100304.41;5099448;27;20068;-63
2022/10/24 07:36:44;;;;;;;6.13;5.65;;;;;;;16.24;87.87;100316.84;5104877;28;22642;-63
2022/10/24 07:39:12;;;;;;;5.72;4.70;;;;;;;16.31;87.68;100322.00;5097060;28;20059;-64
2022/10/24 07:41:40;;;;;;;4.88;4.57;;;;;;;16.40;87.70;100319.22;5101304;27;20054;-63
2022/10/24 07:44:09;;;;;;;6.57;5.32;;;;;;;16.49;87.88;100318.09;5102298;28;20139;-63
2022/10/24 07:46:36;;;;;;;7.13;5.25;;;;;;;16.49;87.44;100323.72;5097411;28;20513;-63
2022/10/24 07:49:03;;;;;;;7.43;5.40;;;;;;;16.69;87.81;100335.56;5101928;28;20056;-65
2022/10/24 07:51:30;;;;;;;9.20;5.45;;;;;;;16.69;87.40;100339.22;5113292;28;20059;-63
2022/10/24 07:53:58;;;;;;;12.55;7.18;;;;;;;16.79;87.51;100343.78;5104141;28;20055;-63
2022/10/24 07:56:25;;;;;;;6.28;5.78;;;;;;;16.87;87.51;100344.94;5100392;28;20048;-63
2022/10/24 07:58:53;;;;;;;6.72;6.03;;;;;;;16.85;87.35;100365.00;5110204;28;20048;-63
2022/10/24 08:01:23;;;;;;;14.38;5.53;;;;;;;16.93;87.54;100363.38;5102422;28;20063;-63
2022/10/24 08:03:50;;;;;;;8.50;5.70;;;;;;;16.96;87.65;100371.19;5101005;28;20288;-64
2022/10/24 08:06:20;;;;;;;11.43;6.18;;;;;;;17.01;88.02;100369.03;5090786;28;20052;-64
2022/10/24 08:08:47;;;;;;;6.55;5.47;;;;;;;17.19;87.90;100375.53;5105073;28;21270;-63
2022/10/24 08:11:18;;;;;;;10.57;5.35;;;;;;;17.41;87.52;100373.75;5108325;28;20411;-63
2022/10/24 08:13:45;;;;;;;11.32;5.43;;;;;;;17.56;87.62;100378.06;5105548;28;20059;-63
2022/10/24 08:16:13;;;;;;;7.57;5.05;;;;;;;17.71;86.33;100383.22;5108730;28;20059;-62
2022/10/24 08:18:40;;;;;;;6.75;6.25;;;;;;;17.76;86.09;100383.91;5101169;28;20059;-63
2022/10/24 08:21:09;;;;;;;9.68;5.80;;;;;;;17.76;85.17;100385.91;5100046;28;20421;-63
2022/10/24 08:23:39;;;;;;;8.55;4.97;;;;;;;17.88;85.80;100390.88;5103606;28;20052;-63
2022/10/24 08:26:07;;;;;;;8.68;7.63;;;;;;;18.02;85.34;100397.19;5108359;28;20058;-62
2022/10/24 08:28:34;;;;;;;7.85;5.28;;;;;;;17.96;84.65;100409.81;5103604;28;20097;-63
2022/10/24 08:31:04;;;;;;;9.27;5.95;;;;;;;17.97;84.63;100411.47;5107206;27;20460;-63
2022/10/24 08:33:32;;;;;;;6.68;6.07;;;;;;;17.85;85.28;100381.09;5097604;28;20055;-63
2022/10/24 08:36:03;;;;;;;11.88;8.70;;;;;;;18.11;84.94;100426.25;5105075;28;20047;-62
2022/10/24 08:38:30;;;;;;;8.38;6.30;;;;;;;18.22;84.63;100427.59;5101526;28;20050;-63
2022/10/24 08:40:57;;;;;;;6.68;6.18;;;;;;;18.27;84.80;100437.88;5093862;28;20051;-63
2022/10/24 08:43:24;;;;;;;7.90;6.20;;;;;;;18.29;84.43;100431.88;5094814;28;20063;-63
2022/10/24 08:46:14;;;;;;;6.32;5.72;;;;;;;18.21;84.09;100431.53;5097445;28;20070;-61
2022/10/24 08:48:58;;;;;;;8.32;6.25;;;;;;;18.08;84.33;100424.09;5096645;28;20043;-63
2022/10/24 08:51:40;;;;;;;6.40;5.80;;;;;;;18.09;83.99;100441.91;5096068;28;20075;-63
2022/10/24 08:54:15;;;;;;;5.65;5.15;;;;;;;18.07;83.77;100411.13;5104355;28;20097;-62
2022/10/24 08:56:43;;;;;;;9.80;6.70;;;;;;;18.03;83.33;100431.91;5100673;28;20074;-63
2022/10/24 08:59:12;;;;;;;6.10;5.50;;;;;;;18.00;82.94;100441.88;5096863;28;20530;-63
2022/10/24 09:01:44;;;;;;;7.45;6.93;;;;;;;18.10;83.60;100437.91;5098011;28;20047;-63
2022/10/24 09:04:16;;;;;;;6.18;4.90;;;;;;;18.30;84.12;100448.50;5094453;28;20051;-63
2022/10/24 09:06:45;;;;;;;6.53;5.35;;;;;;;18.47;84.30;100447.66;5100096;28;20067;-62
2022/10/24 09:09:32;;;;;;;7.55;6.78;;;;;;;18.51;83.76;100457.09;5098608;28;20060;-63
2022/10/24 09:12:02;;;;;;;8.15;6.38;;;;;;;18.59;84.03;100450.59;5094169;28;20048;-63
2022/10/24 09:14:32;;;;;;;16.13;6.93;;;;;;;18.54;84.24;100453.63;5104319;28;20051;-63
2022/10/24 09:17:21;;;;;;;7.20;6.50;;;;;;;18.50;83.90;100465.94;5103054;28;20058;-63
2022/10/24 09:19:58;;;;;;;10.20;5.60;;;;;;;18.43;83.95;100470.09;5095887;28;20052;-63
2022/10/24 09:22:29;;;;;;;6.30;5.10;;;;;;;18.37;84.01;100464.97;5100625;28;20601;-63
2022/10/24 09:25:06;;;;;;;9.27;5.50;;;;;;;18.28;84.00;100475.44;5097776;28;20048;-64
2022/10/24 09:27:37;;;;;;;9.60;6.45;;;;;;;18.15;84.17;100469.66;5100352;28;20051;-63
2022/10/24 09:30:06;;;;;;;7.72;6.03;;;;;;;17.87;83.92;100455.00;5097458;28;20048;-63
2022/10/24 09:32:35;;;;;;;8.13;6.30;;;;;;;17.78;84.73;100457.03;5095545;28;20123;-63
2022/10/24 09:35:06;;;;;;;6.90;6.28;;;;;;;18.02;85.57;100459.34;5101750;28;20052;-63
2022/10/24 09:37:39;;;;;;;6.15;5.70;;;;;;;18.36;86.62;100471.75;5100937;28;20050;-63
2022/10/24 09:40:25;;;;;;;10.88;6.53;;;;;;;18.74;85.52;100471.91;5093059;28;20044;-63
2022/10/24 09:43:22;;;;;;;9.35;7.00;;;;;;;19.04;86.37;100464.28;5097392;28;20044;-63
2022/10/24 09:45:59;;;;;;;7.00;6.38;;;;;;;19.17;84.67;100466.03;5096379;28;20056;-63
2022/10/24 09:49:01;;;;;;;7.10;6.50;;;;;;;19.26;84.23;100468.00;5096979;28;20430;-64
2022/10/24 09:51:34;;;;;;;7.18;6.57;;;;;;;19.70;83.93;100471.44;5099595;28;20052;-63
2022/10/24 09:54:17;;;;;;;8.38;6.13;;;;;;;19.93;83.07;100472.75;5099753;28;20047;-65
2022/10/24 09:56:57;;;;;;;9.10;6.65;;;;;;;20.10;83.65;100469.78;5098549;28;20536;-67
2022/10/24 09:59:30;;;;;;;8.05;7.35;;;;;;;20.19;83.35;100469.69;5096980;28;20344;-66
2022/10/24 10:02:09;;;;;;;8.57;7.60;;;;;;;19.94;81.69;100474.41;5099394;28;20051;-62
2022/10/24 10:04:37;;;;;;;8.90;6.90;;;;;;;19.72;81.66;100466.25;5097703;28;20561;-63
2022/10/24 10:07:16;;;;;;;6.78;6.07;;;;;;;19.55;81.60;100464.31;5094527;28;20060;-63
2022/10/24 10:09:51;;;;;;;6.53;6.03;;;;;;;19.22;80.20;100478.38;5095762;28;20503;-63
2022/10/24 10:12:37;;;;;;;7.38;6.72;;;;;;;19.04;81.91;100472.78;5103069;28;20051;-63
2022/10/24 10:15:36;;;;;;;6.80;6.25;;;;;;;18.93;81.98;100465.81;5092805;28;20138;-63
2022/10/24 10:18:32;;;;;;;12.43;7.55;;;;;;;18.94;83.00;100461.84;5097746;28;20536;-63
2022/10/24 10:21:17;;;;;;;7.55;6.70;;;;;;;19.02;82.56;100458.13;5100527;28;20081;-63
2022/10/24 10:23:50;;;;;;;7.90;7.22;;;;;;;19.07;82.66;100466.41;5103943;28;20059;-64
2022/10/24 10:26:26;;;;;;;7.45;6.43;;;;;;;19.01;82.41;100462.13;5098794;28;20410;-63
2022/10/24 10:29:04;;;;;;;6.13;5.63;;;;;;;18.86;81.17;100452.19;5098347;28;20076;-63
2022/10/24 10:31:34;;;;;;;9.20;8.45;;;;;;;18.84;82.30;100467.88;5101502;28;20403;-63
2022/10/24 10:34:00;;;;;;;9.57;6.10;;;;;;;18.81;82.44;100477.03;5094866;28;20044;-63
2022/10/24 10:36:53;;;;;;;6.97;6.20;;;;;;;18.66;82.29;100462.22;5101002;28;21664;-63
2022/10/24 10:39:38;;;;;;;9.10;5.90;;;;;;;18.63;82.10;100462.91;5100378;28;20055;-64
2022/10/24 10:42:17;;;;;;;6.82;5.80;;;;;;;18.80;82.71;100478.19;5095697;28;20047;-64
2022/10/24 10:45:26;;;;;;;6.18;5.65;;;;;;;18.80;82.82;100473.34;5093549;28;20474;-64
2022/10/24 10:48:12;;;;;;;11.00;7.70;;;;;;;18.91;82.88;100469.00;5091188;28;20043;-64
2022/10/24 10:50:39;;;;;;;10.02;6.55;;;;;;;19.23;83.54;100474.34;5090493;28;20064;-63
2022/10/24 10:53:34;;;;;;;8.80;5.75;;;;;;;19.35;83.44;100463.97;5099018;28;20054;-63
2022/10/24 10:56:33;;;;;;;8.35;7.55;;;;;;;19.54;81.88;100474.81;5099573;28;20055;-63
2022/10/24 10:59:24;;;;;;;6.68;5.38;;;;;;;19.64;81.17;100462.31;5080499;28;20059;-62
2022/10/24 11:01:57;;;;;;;9.70;6.72;;;;;;;19.63;80.88;100464.31;5093108;28;20054;-64
2022/10/24 11:04:40;;;;;;;6.78;5.60;;;;;;;19.67;81.18;100463.63;5097740;28;20143;-63
2022/10/24 11:07:16;;;;;;;7.20;6.00;;;;;;;19.71;80.93;100473.91;5102613;28;20055;-63
2022/10/24 11:09:48;;;;;;;10.05;6.55;;;;;;;19.51;79.25;100469.84;5095126;28;20055;-64
2022/10/24 11:12:33;;;;;;;7.70;6.85;;;;;;;19.55;80.38;100464.31;5098280;28;20059;-64
2022/10/24 11:15:12;;;;;;;8.52;7.10;;;;;;;19.85;80.33;100468.81;5102659;28;20582;-63
2022/10/24 11:17:49;;;;;;;;;;;;;;;19.79;82.79;100469.34;5095725;28;20121;-64
2022/10/24 11:20:23;;;;;;;6.57;5.97;;;;;;;20.20;80.33;100462.00;5096786;28;20038;-63
2022/10/24 11:22:55;;;;;;;6.75;6.35;;;;;;;20.16;79.46;100458.22;5104323;28;20048;-63
2022/10/24 11:25:30;;;;;;;8.70;6.35;;;;;;;20.12;78.06;100460.91;5103302;28;20059;-63
2022/10/24 11:28:28;;;;;;;6.15;5.55;;;;;;;20.21;78.34;100458.84;5100733;28;20044;-63
2022/10/24 11:30:59;;;;;;;5.45;5.00;;;;;;;20.27;78.30;100460.28;5090660;28;20516;-64
2022/10/24 11:33:35;;;;;;;10.88;6.88;;;;;;;20.31;78.00;100463.25;5097726;28;20063;-64
2022/10/24 11:36:01;;;;;;;6.68;5.10;;;;;;;20.26;78.93;100466.28;5097123;28;20063;-63
2022/10/24 11:38:31;;;;;;;9.07;6.20;;;;;;;20.09;77.08;100451.09;5102989;28;20058;-65
2022/10/24 11:41:21;;;;;;;6.32;5.82;;;;;;;20.04;77.06;100454.16;5100520;28;20043;-64